sensor_id;sensor_type;location;lat;lon;timestamp;P1;durP1;ratioP1;P2;durP2;ratioP2
75858;SDS011;64504;51.308;8.620;2023-04-25T00:02:11;12.35;;;9.18;;
75858;SDS011;64504;51.308;8.620;2023-04-25T00:04:37;27.35;;;10.52;;
75858;SDS011;64504;51.308;8.620;2023-04-25T00:07:03;18.42;;;10.18;;
75858;SDS011;64504;51.308;8.620;2023-04-25T00:09:28;13.95;;;9.10;;
75858;SDS011;64504;51.308;8.620;2023-04-25T00:11:54;11.18;;;8.30;;
75858;SDS011;64504;51.308;8.620;2023-04-25T00:14:20;15.50;;;10.15;;
75858;SDS011;64504;51.308;8.620;2023-04-25T00:16:45;15.20;;;11.68;;
75858;SDS011;64504;51.308;8.620;2023-04-25T00:19:11;19.48;;;10.05;;
75858;SDS011;64504;51.308;8.620;2023-04-25T00:21:38;18.95;;;11.07;;
75858;SDS011;64504;51.308;8.620;2023-04-25T00:24:06;26.23;;;12.77;;
75858;SDS011;64504;51.308;8.620;2023-04-25T00:26:33;16.45;;;10.13;;
75858;SDS011;64504;51.308;8.620;2023-04-25T00:29:00;17.90;;;11.52;;
75858;SDS011;64504;51.308;8.620;2023-04-25T00:31:26;12.75;;;10.40;;
75858;SDS011;64504;51.308;8.620;2023-04-25T00:33:51;16.38;;;12.23;;
75858;SDS011;64504;51.308;8.620;2023-04-25T00:36:18;19.30;;;11.35;;
75858;SDS011;64504;51.308;8.620;2023-04-25T00:38:44;15.63;;;10.95;;
75858;SDS011;64504;51.308;8.620;2023-04-25T00:41:10;23.30;;;11.15;;
75858;SDS011;64504;51.308;8.620;2023-04-25T00:43:36;16.25;;;11.75;;
75858;SDS011;64504;51.308;8.620;2023-04-25T00:46:02;12.48;;;9.93;;
75858;SDS011;64504;51.308;8.620;2023-04-25T00:48:28;16.58;;;10.02;;
75858;SDS011;64504;51.308;8.620;2023-04-25T00:50:54;13.20;;;10.10;;
75858;SDS011;64504;51.308;8.620;2023-04-25T00:53:21;14.82;;;9.68;;
75858;SDS011;64504;51.308;8.620;2023-04-25T00:55:49;11.02;;;9.07;;
75858;SDS011;64504;51.308;8.620;2023-04-25T00:58:19;13.95;;;8.80;;
75858;SDS011;64504;51.308;8.620;2023-04-25T01:00:49;10.00;;;8.23;;
75858;SDS011;64504;51.308;8.620;2023-04-25T01:03:16;10.98;;;9.38;;
75858;SDS011;64504;51.308;8.620;2023-04-25T01:05:42;15.77;;;9.35;;
75858;SDS011;64504;51.308;8.620;2023-04-25T01:08:09;8.85;;;7.25;;
75858;SDS011;64504;51.308;8.620;2023-04-25T01:10:35;14.23;;;7.70;;
75858;SDS011;64504;51.308;8.620;2023-04-25T01:13:01;11.40;;;8.43;;
75858;SDS011;64504;51.308;8.620;2023-04-25T01:15:26;13.02;;;9.00;;
75858;SDS011;64504;51.308;8.620;2023-04-25T01:17:52;15.05;;;7.95;;
75858;SDS011;64504;51.308;8.620;2023-04-25T01:20:18;10.90;;;9.40;;
75858;SDS011;64504;51.308;8.620;2023-04-25T01:22:46;16.65;;;8.15;;
75858;SDS011;64504;51.308;8.620;2023-04-25T01:25:12;11.88;;;7.57;;
75858;SDS011;64504;51.308;8.620;2023-04-25T01:27:37;19.13;;;7.93;;
75858;SDS011;64504;51.308;8.620;2023-04-25T01:30:03;10.80;;;7.85;;
75858;SDS011;64504;51.308;8.620;2023-04-25T01:32:30;15.45;;;7.65;;
75858;SDS011;64504;51.308;8.620;2023-04-25T01:35:03;10.52;;;7.03;;
75858;SDS011;64504;51.308;8.620;2023-04-25T01:37:34;10.55;;;6.95;;
75858;SDS011;64504;51.308;8.620;2023-04-25T01:40:07;10.95;;;7.05;;
75858;SDS011;64504;51.308;8.620;2023-04-25T01:42:34;11.68;;;6.43;;
75858;SDS011;64504;51.308;8.620;2023-04-25T01:45:00;16.83;;;7.05;;
75858;SDS011;64504;51.308;8.620;2023-04-25T01:47:26;9.10;;;5.60;;
75858;SDS011;64504;51.308;8.620;2023-04-25T01:49:51;11.10;;;5.60;;
75858;SDS011;64504;51.308;8.620;2023-04-25T01:52:17;13.40;;;7.95;;
75858;SDS011;64504;51.308;8.620;2023-04-25T01:54:42;10.93;;;6.53;;
75858;SDS011;64504;51.308;8.620;2023-04-25T01:57:10;8.32;;;7.50;;
75858;SDS011;64504;51.308;8.620;2023-04-25T01:59:38;12.10;;;6.70;;
75858;SDS011;64504;51.308;8.620;2023-04-25T02:02:05;17.38;;;6.90;;
75858;SDS011;64504;51.308;8.620;2023-04-25T02:04:30;7.68;;;6.35;;
75858;SDS011;64504;51.308;8.620;2023-04-25T02:06:59;7.63;;;5.65;;
75858;SDS011;64504;51.308;8.620;2023-04-25T02:09:24;15.82;;;6.22;;
75858;SDS011;64504;51.308;8.620;2023-04-25T02:11:50;11.43;;;5.18;;
75858;SDS011;64504;51.308;8.620;2023-04-25T02:14:16;6.93;;;5.40;;
75858;SDS011;64504;51.308;8.620;2023-04-25T02:16:41;12.43;;;5.35;;
75858;SDS011;64504;51.308;8.620;2023-04-25T02:19:09;5.88;;;4.93;;
75858;SDS011;64504;51.308;8.620;2023-04-25T02:21:35;13.35;;;6.50;;
75858;SDS011;64504;51.308;8.620;2023-04-25T02:24:01;8.48;;;6.25;;
75858;SDS011;64504;51.308;8.620;2023-04-25T02:26:27;6.93;;;6.28;;
75858;SDS011;64504;51.308;8.620;2023-04-25T02:28:53;8.32;;;5.55;;
75858;SDS011;64504;51.308;8.620;2023-04-25T02:31:18;7.82;;;6.53;;
75858;SDS011;64504;51.308;8.620;2023-04-25T02:33:44;7.65;;;6.53;;
75858;SDS011;64504;51.308;8.620;2023-04-25T02:36:11;8.27;;;6.68;;
75858;SDS011;64504;51.308;8.620;2023-04-25T02:38:37;7.10;;;6.32;;
75858;SDS011;64504;51.308;8.620;2023-04-25T02:41:03;12.43;;;7.35;;
75858;SDS011;64504;51.308;8.620;2023-04-25T02:43:29;7.35;;;5.78;;
75858;SDS011;64504;51.308;8.620;2023-04-25T02:45:55;11.70;;;6.63;;
75858;SDS011;64504;51.308;8.620;2023-04-25T02:48:20;6.95;;;6.28;;
75858;SDS011;64504;51.308;8.620;2023-04-25T02:50:46;10.30;;;7.10;;
75858;SDS011;64504;51.308;8.620;2023-04-25T02:53:11;8.30;;;7.07;;
75858;SDS011;64504;51.308;8.620;2023-04-25T02:55:37;11.35;;;7.60;;
75858;SDS011;64504;51.308;8.620;2023-04-25T02:58:02;9.73;;;5.53;;
75858;SDS011;64504;51.308;8.620;2023-04-25T03:00:28;11.00;;;7.22;;
75858;SDS011;64504;51.308;8.620;2023-04-25T03:02:53;11.88;;;7.43;;
75858;SDS011;64504;51.308;8.620;2023-04-25T03:05:19;14.98;;;7.53;;
75858;SDS011;64504;51.308;8.620;2023-04-25T03:07:44;6.70;;;6.10;;
75858;SDS011;64504;51.308;8.620;2023-04-25T03:10:11;9.40;;;8.13;;
75858;SDS011;64504;51.308;8.620;2023-04-25T03:12:36;8.93;;;6.85;;
75858;SDS011;64504;51.308;8.620;2023-04-25T03:15:02;10.07;;;7.65;;
75858;SDS011;64504;51.308;8.620;2023-04-25T03:17:29;9.05;;;8.15;;
75858;SDS011;64504;51.308;8.620;2023-04-25T03:19:54;9.80;;;8.70;;
75858;SDS011;64504;51.308;8.620;2023-04-25T03:22:20;10.15;;;6.75;;
75858;SDS011;64504;51.308;8.620;2023-04-25T03:24:47;8.40;;;7.13;;
75858;SDS011;64504;51.308;8.620;2023-04-25T03:27:12;11.02;;;7.95;;
75858;SDS011;64504;51.308;8.620;2023-04-25T03:29:38;9.60;;;7.13;;
75858;SDS011;64504;51.308;8.620;2023-04-25T03:32:03;11.00;;;7.78;;
75858;SDS011;64504;51.308;8.620;2023-04-25T03:34:30;10.50;;;7.10;;
75858;SDS011;64504;51.308;8.620;2023-04-25T03:36:56;9.88;;;6.00;;
75858;SDS011;64504;51.308;8.620;2023-04-25T03:39:21;12.73;;;6.53;;
75858;SDS011;64504;51.308;8.620;2023-04-25T03:41:46;5.25;;;4.82;;
75858;SDS011;64504;51.308;8.620;2023-04-25T03:44:12;10.00;;;5.13;;
75858;SDS011;64504;51.308;8.620;2023-04-25T03:46:38;7.00;;;6.40;;
75858;SDS011;64504;51.308;8.620;2023-04-25T03:49:03;5.70;;;5.15;;
75858;SDS011;64504;51.308;8.620;2023-04-25T03:51:30;5.70;;;4.22;;
75858;SDS011;64504;51.308;8.620;2023-04-25T03:53:56;7.63;;;6.28;;
75858;SDS011;64504;51.308;8.620;2023-04-25T03:56:21;6.00;;;4.75;;
75858;SDS011;64504;51.308;8.620;2023-04-25T03:58:48;8.57;;;4.90;;
75858;SDS011;64504;51.308;8.620;2023-04-25T04:01:14;5.38;;;4.88;;
75858;SDS011;64504;51.308;8.620;2023-04-25T04:03:40;5.53;;;4.95;;
75858;SDS011;64504;51.308;8.620;2023-04-25T04:06:06;6.90;;;5.63;;
75858;SDS011;64504;51.308;8.620;2023-04-25T04:08:32;5.70;;;5.18;;
75858;SDS011;64504;51.308;8.620;2023-04-25T04:10:58;4.30;;;4.00;;
75858;SDS011;64504;51.308;8.620;2023-04-25T04:13:28;4.22;;;3.83;;
75858;SDS011;64504;51.308;8.620;2023-04-25T04:15:54;3.58;;;3.17;;
75858;SDS011;64504;51.308;8.620;2023-04-25T04:18:20;3.55;;;3.25;;
75858;SDS011;64504;51.308;8.620;2023-04-25T04:20:46;2.67;;;2.30;;
75858;SDS011;64504;51.308;8.620;2023-04-25T04:23:12;4.25;;;2.90;;
75858;SDS011;64504;51.308;8.620;2023-04-25T04:25:37;3.38;;;2.35;;
75858;SDS011;64504;51.308;8.620;2023-04-25T04:28:05;3.38;;;2.88;;
75858;SDS011;64504;51.308;8.620;2023-04-25T04:30:31;2.95;;;2.60;;
75858;SDS011;64504;51.308;8.620;2023-04-25T04:32:59;2.47;;;2.03;;
75858;SDS011;64504;51.308;8.620;2023-04-25T04:35:26;3.30;;;2.22;;
75858;SDS011;64504;51.308;8.620;2023-04-25T04:37:52;2.78;;;2.15;;
75858;SDS011;64504;51.308;8.620;2023-04-25T04:40:18;1.40;;;1.30;;
75858;SDS011;64504;51.308;8.620;2023-04-25T04:42:44;2.92;;;2.63;;
75858;SDS011;64504;51.308;8.620;2023-04-25T04:45:13;2.85;;;1.92;;
75858;SDS011;64504;51.308;8.620;2023-04-25T04:47:39;2.38;;;2.17;;
75858;SDS011;64504;51.308;8.620;2023-04-25T04:50:06;2.17;;;1.35;;
75858;SDS011;64504;51.308;8.620;2023-04-25T04:52:33;2.00;;;1.90;;
75858;SDS011;64504;51.308;8.620;2023-04-25T04:55:00;4.05;;;2.05;;
75858;SDS011;64504;51.308;8.620;2023-04-25T04:57:26;3.15;;;2.30;;
75858;SDS011;64504;51.308;8.620;2023-04-25T04:59:52;2.95;;;2.35;;
75858;SDS011;64504;51.308;8.620;2023-04-25T05:02:18;1.70;;;1.55;;
75858;SDS011;64504;51.308;8.620;2023-04-25T05:04:43;2.88;;;2.13;;
75858;SDS011;64504;51.308;8.620;2023-04-25T05:07:09;2.30;;;2.10;;
75858;SDS011;64504;51.308;8.620;2023-04-25T05:09:35;4.47;;;1.95;;
75858;SDS011;64504;51.308;8.620;2023-04-25T05:12:01;1.58;;;1.42;;
75858;SDS011;64504;51.308;8.620;2023-04-25T05:14:27;5.38;;;2.67;;
75858;SDS011;64504;51.308;8.620;2023-04-25T05:16:52;10.55;;;4.45;;
75858;SDS011;64504;51.308;8.620;2023-04-25T05:19:18;5.22;;;3.40;;
75858;SDS011;64504;51.308;8.620;2023-04-25T05:21:43;4.18;;;3.70;;
75858;SDS011;64504;51.308;8.620;2023-04-25T05:24:09;3.55;;;2.92;;
75858;SDS011;64504;51.308;8.620;2023-04-25T05:26:34;7.68;;;3.58;;
75858;SDS011;64504;51.308;8.620;2023-04-25T05:29:00;9.13;;;5.47;;
75858;SDS011;64504;51.308;8.620;2023-04-25T05:31:25;4.10;;;3.63;;
75858;SDS011;64504;51.308;8.620;2023-04-25T05:33:52;7.72;;;5.40;;
75858;SDS011;64504;51.308;8.620;2023-04-25T05:36:20;12.93;;;5.13;;
75858;SDS011;64504;51.308;8.620;2023-04-25T05:38:46;21.75;;;5.82;;
75858;SDS011;64504;51.308;8.620;2023-04-25T05:41:12;19.05;;;5.13;;
75858;SDS011;64504;51.308;8.620;2023-04-25T05:43:37;9.60;;;6.00;;
75858;SDS011;64504;51.308;8.620;2023-04-25T05:46:03;8.23;;;6.20;;
75858;SDS011;64504;51.308;8.620;2023-04-25T05:48:28;10.10;;;5.10;;
75858;SDS011;64504;51.308;8.620;2023-04-25T05:50:54;16.85;;;6.10;;
75858;SDS011;64504;51.308;8.620;2023-04-25T05:53:20;15.50;;;7.68;;
75858;SDS011;64504;51.308;8.620;2023-04-25T05:55:46;16.38;;;7.57;;
75858;SDS011;64504;51.308;8.620;2023-04-25T05:58:11;13.07;;;6.35;;
75858;SDS011;64504;51.308;8.620;2023-04-25T06:00:37;10.35;;;7.20;;
75858;SDS011;64504;51.308;8.620;2023-04-25T06:03:03;7.20;;;6.50;;
75858;SDS011;64504;51.308;8.620;2023-04-25T06:05:29;11.68;;;6.32;;
75858;SDS011;64504;51.308;8.620;2023-04-25T06:07:55;19.60;;;7.65;;
75858;SDS011;64504;51.308;8.620;2023-04-25T06:10:21;20.70;;;5.70;;
75858;SDS011;64504;51.308;8.620;2023-04-25T06:12:47;21.67;;;6.82;;
75858;SDS011;64504;51.308;8.620;2023-04-25T06:15:13;10.38;;;6.25;;
75858;SDS011;64504;51.308;8.620;2023-04-25T06:17:39;14.90;;;8.20;;
75858;SDS011;64504;51.308;8.620;2023-04-25T06:20:04;12.10;;;5.90;;
75858;SDS011;64504;51.308;8.620;2023-04-25T06:22:31;19.98;;;5.88;;
75858;SDS011;64504;51.308;8.620;2023-04-25T06:24:56;8.07;;;6.35;;
75858;SDS011;64504;51.308;8.620;2023-04-25T06:27:25;13.02;;;5.97;;
75858;SDS011;64504;51.308;8.620;2023-04-25T06:29:50;11.68;;;6.68;;
75858;SDS011;64504;51.308;8.620;2023-04-25T06:32:16;7.50;;;5.38;;
75858;SDS011;64504;51.308;8.620;2023-04-25T06:34:43;9.73;;;6.03;;
75858;SDS011;64504;51.308;8.620;2023-04-25T06:37:08;12.43;;;5.53;;
75858;SDS011;64504;51.308;8.620;2023-04-25T06:39:34;20.58;;;8.77;;
75858;SDS011;64504;51.308;8.620;2023-04-25T06:42:00;24.50;;;6.28;;
75858;SDS011;64504;51.308;8.620;2023-04-25T06:44:27;15.48;;;6.45;;
75858;SDS011;64504;51.308;8.620;2023-04-25T06:46:54;16.20;;;6.43;;
75858;SDS011;64504;51.308;8.620;2023-04-25T06:49:19;8.07;;;6.10;;
75858;SDS011;64504;51.308;8.620;2023-04-25T06:51:45;10.65;;;7.00;;
75858;SDS011;64504;51.308;8.620;2023-04-25T06:54:11;15.23;;;5.32;;
75858;SDS011;64504;51.308;8.620;2023-04-25T06:56:36;8.15;;;5.95;;
75858;SDS011;64504;51.308;8.620;2023-04-25T06:59:01;12.18;;;6.70;;
75858;SDS011;64504;51.308;8.620;2023-04-25T07:01:27;19.10;;;6.50;;
75858;SDS011;64504;51.308;8.620;2023-04-25T07:03:52;24.20;;;7.32;;
75858;SDS011;64504;51.308;8.620;2023-04-25T07:06:18;12.30;;;5.65;;
75858;SDS011;64504;51.308;8.620;2023-04-25T07:08:44;5.53;;;4.70;;
75858;SDS011;64504;51.308;8.620;2023-04-25T07:11:10;14.50;;;8.00;;
75858;SDS011;64504;51.308;8.620;2023-04-25T07:13:35;14.50;;;7.00;;
75858;SDS011;64504;51.308;8.620;2023-04-25T07:16:01;12.43;;;6.55;;
75858;SDS011;64504;51.308;8.620;2023-04-25T07:18:28;17.75;;;6.72;;
75858;SDS011;64504;51.308;8.620;2023-04-25T07:20:53;17.08;;;7.30;;
75858;SDS011;64504;51.308;8.620;2023-04-25T07:23:19;10.15;;;6.13;;
75858;SDS011;64504;51.308;8.620;2023-04-25T07:25:45;11.93;;;4.80;;
75858;SDS011;64504;51.308;8.620;2023-04-25T07:28:11;21.13;;;7.82;;
75858;SDS011;64504;51.308;8.620;2023-04-25T07:30:38;16.75;;;7.45;;
75858;SDS011;64504;51.308;8.620;2023-04-25T07:33:04;12.93;;;6.55;;
75858;SDS011;64504;51.308;8.620;2023-04-25T07:35:29;11.75;;;5.93;;
75858;SDS011;64504;51.308;8.620;2023-04-25T07:37:55;11.05;;;6.22;;
75858;SDS011;64504;51.308;8.620;2023-04-25T07:40:20;15.98;;;6.15;;
75858;SDS011;64504;51.308;8.620;2023-04-25T07:42:46;17.88;;;6.70;;
75858;SDS011;64504;51.308;8.620;2023-04-25T07:45:12;14.23;;;5.15;;
75858;SDS011;64504;51.308;8.620;2023-04-25T07:47:37;14.32;;;6.57;;
75858;SDS011;64504;51.308;8.620;2023-04-25T07:50:03;14.50;;;4.65;;
75858;SDS011;64504;51.308;8.620;2023-04-25T07:52:29;7.88;;;4.70;;
75858;SDS011;64504;51.308;8.620;2023-04-25T07:54:54;14.98;;;4.68;;
75858;SDS011;64504;51.308;8.620;2023-04-25T07:57:20;4.53;;;4.13;;
75858;SDS011;64504;51.308;8.620;2023-04-25T07:59:45;8.43;;;4.40;;
75858;SDS011;64504;51.308;8.620;2023-04-25T08:02:11;7.40;;;3.72;;
75858;SDS011;64504;51.308;8.620;2023-04-25T08:04:36;15.32;;;5.85;;
75858;SDS011;64504;51.308;8.620;2023-04-25T08:07:02;7.35;;;4.75;;
75858;SDS011;64504;51.308;8.620;2023-04-25T08:09:27;12.00;;;6.03;;
75858;SDS011;64504;51.308;8.620;2023-04-25T08:11:54;6.30;;;5.60;;
75858;SDS011;64504;51.308;8.620;2023-04-25T08:14:19;9.02;;;5.00;;
75858;SDS011;64504;51.308;8.620;2023-04-25T08:16:45;9.00;;;6.63;;
75858;SDS011;64504;51.308;8.620;2023-04-25T08:19:10;13.18;;;6.70;;
75858;SDS011;64504;51.308;8.620;2023-04-25T08:21:36;11.57;;;4.72;;
75858;SDS011;64504;51.308;8.620;2023-04-25T08:24:01;13.00;;;5.20;;
75858;SDS011;64504;51.308;8.620;2023-04-25T08:26:28;9.95;;;6.25;;
75858;SDS011;64504;51.308;8.620;2023-04-25T08:28:54;10.38;;;4.15;;
75858;SDS011;64504;51.308;8.620;2023-04-25T08:31:19;14.05;;;6.53;;
75858;SDS011;64504;51.308;8.620;2023-04-25T08:33:45;18.23;;;6.20;;
75858;SDS011;64504;51.308;8.620;2023-04-25T08:36:11;5.60;;;4.65;;
75858;SDS011;64504;51.308;8.620;2023-04-25T08:38:37;11.88;;;5.28;;
75858;SDS011;64504;51.308;8.620;2023-04-25T08:41:02;20.58;;;6.57;;
75858;SDS011;64504;51.308;8.620;2023-04-25T08:43:29;17.73;;;8.40;;
75858;SDS011;64504;51.308;8.620;2023-04-25T08:45:57;24.77;;;7.38;;
75858;SDS011;64504;51.308;8.620;2023-04-25T08:48:24;19.33;;;5.63;;
75858;SDS011;64504;51.308;8.620;2023-04-25T08:50:52;10.35;;;5.13;;
75858;SDS011;64504;51.308;8.620;2023-04-25T08:53:25;11.63;;;4.75;;
75858;SDS011;64504;51.308;8.620;2023-04-25T08:55:55;6.47;;;3.00;;
75858;SDS011;64504;51.308;8.620;2023-04-25T08:58:23;7.80;;;3.72;;
75858;SDS011;64504;51.308;8.620;2023-04-25T09:00:49;5.75;;;3.47;;
75858;SDS011;64504;51.308;8.620;2023-04-25T09:03:16;6.13;;;3.60;;
75858;SDS011;64504;51.308;8.620;2023-04-25T09:05:43;6.40;;;3.38;;
75858;SDS011;64504;51.308;8.620;2023-04-25T09:08:10;9.98;;;2.88;;
75858;SDS011;64504;51.308;8.620;2023-04-25T09:10:35;10.88;;;4.07;;
75858;SDS011;64504;51.308;8.620;2023-04-25T09:13:03;13.23;;;4.70;;
75858;SDS011;64504;51.308;8.620;2023-04-25T09:15:50;10.35;;;3.17;;
75858;SDS011;64504;51.308;8.620;2023-04-25T09:21:04;11.35;;;3.25;;
75858;SDS011;64504;51.308;8.620;2023-04-25T09:23:31;20.60;;;5.32;;
75858;SDS011;64504;51.308;8.620;2023-04-25T09:26:06;7.13;;;3.30;;
75858;SDS011;64504;51.308;8.620;2023-04-25T09:28:32;13.93;;;4.63;;
75858;SDS011;64504;51.308;8.620;2023-04-25T09:31:00;11.18;;;3.80;;
75858;SDS011;64504;51.308;8.620;2023-04-25T09:33:29;5.55;;;3.63;;
75858;SDS011;64504;51.308;8.620;2023-04-25T09:36:03;8.63;;;4.40;;
75858;SDS011;64504;51.308;8.620;2023-04-25T09:38:31;17.10;;;3.97;;
75858;SDS011;64504;51.308;8.620;2023-04-25T09:40:57;4.70;;;3.22;;
75858;SDS011;64504;51.308;8.620;2023-04-25T09:43:24;12.00;;;3.58;;
75858;SDS011;64504;51.308;8.620;2023-04-25T09:45:51;21.85;;;4.28;;
75858;SDS011;64504;51.308;8.620;2023-04-25T09:48:17;7.22;;;5.35;;
75858;SDS011;64504;51.308;8.620;2023-04-25T09:50:44;14.20;;;4.15;;
75858;SDS011;64504;51.308;8.620;2023-04-25T09:53:10;8.82;;;3.55;;
75858;SDS011;64504;51.308;8.620;2023-04-25T09:55:36;11.55;;;2.60;;
75858;SDS011;64504;51.308;8.620;2023-04-25T09:58:05;8.18;;;3.30;;
75858;SDS011;64504;51.308;8.620;2023-04-25T10:00:32;5.28;;;3.17;;
75858;SDS011;64504;51.308;8.620;2023-04-25T10:03:00;11.52;;;3.13;;
75858;SDS011;64504;51.308;8.620;2023-04-25T10:05:29;3.53;;;2.53;;
75858;SDS011;64504;51.308;8.620;2023-04-25T10:07:57;5.68;;;2.05;;
75858;SDS011;64504;51.308;8.620;2023-04-25T10:10:24;7.78;;;2.97;;
75858;SDS011;64504;51.308;8.620;2023-04-25T10:12:52;3.58;;;2.72;;
75858;SDS011;64504;51.308;8.620;2023-04-25T10:15:18;5.07;;;2.10;;
75858;SDS011;64504;51.308;8.620;2023-04-25T10:17:44;5.38;;;2.75;;
75858;SDS011;64504;51.308;8.620;2023-04-25T10:20:10;7.45;;;3.08;;
75858;SDS011;64504;51.308;8.620;2023-04-25T10:22:39;5.80;;;3.35;;
75858;SDS011;64504;51.308;8.620;2023-04-25T10:25:06;3.67;;;1.85;;
75858;SDS011;64504;51.308;8.620;2023-04-25T10:27:33;6.82;;;2.80;;
75858;SDS011;64504;51.308;8.620;2023-04-25T10:30:07;2.05;;;1.95;;
75858;SDS011;64504;51.308;8.620;2023-04-25T10:32:36;12.90;;;2.97;;
75858;SDS011;64504;51.308;8.620;2023-04-25T10:35:15;7.65;;;2.80;;
75858;SDS011;64504;51.308;8.620;2023-04-25T10:37:57;6.28;;;2.28;;
75858;SDS011;64504;51.308;8.620;2023-04-25T10:40:24;4.38;;;2.30;;
75858;SDS011;64504;51.308;8.620;2023-04-25T10:42:51;6.90;;;2.85;;
75858;SDS011;64504;51.308;8.620;2023-04-25T10:45:18;16.60;;;2.80;;
75858;SDS011;64504;51.308;8.620;2023-04-25T10:47:43;4.63;;;2.47;;
75858;SDS011;64504;51.308;8.620;2023-04-25T10:50:14;8.10;;;2.50;;
75858;SDS011;64504;51.308;8.620;2023-04-25T10:52:41;4.32;;;1.88;;
75858;SDS011;64504;51.308;8.620;2023-04-25T10:55:07;8.77;;;2.60;;
75858;SDS011;64504;51.308;8.620;2023-04-25T11:00:06;8.65;;;1.98;;
75858;SDS011;64504;51.308;8.620;2023-04-25T11:02:38;10.02;;;2.50;;
75858;SDS011;64504;51.308;8.620;2023-04-25T11:05:06;3.70;;;2.47;;
75858;SDS011;64504;51.308;8.620;2023-04-25T11:10:33;10.68;;;2.85;;
75858;SDS011;64504;51.308;8.620;2023-04-25T11:13:00;23.02;;;3.55;;
75858;SDS011;64504;51.308;8.620;2023-04-25T11:15:27;6.43;;;2.95;;
75858;SDS011;64504;51.308;8.620;2023-04-25T11:17:53;5.88;;;3.47;;
75858;SDS011;64504;51.308;8.620;2023-04-25T11:20:19;3.90;;;2.70;;
75858;SDS011;64504;51.308;8.620;2023-04-25T11:22:46;4.20;;;2.72;;
75858;SDS011;64504;51.308;8.620;2023-04-25T11:25:13;8.98;;;3.55;;
75858;SDS011;64504;51.308;8.620;2023-04-25T11:27:54;8.43;;;3.53;;
75858;SDS011;64504;51.308;8.620;2023-04-25T11:30:22;8.57;;;3.15;;
75858;SDS011;64504;51.308;8.620;2023-04-25T11:32:50;4.22;;;2.92;;
75858;SDS011;64504;51.308;8.620;2023-04-25T11:35:18;4.80;;;3.42;;
75858;SDS011;64504;51.308;8.620;2023-04-25T11:37:45;4.47;;;1.90;;
75858;SDS011;64504;51.308;8.620;2023-04-25T11:40:11;7.55;;;2.35;;
75858;SDS011;64504;51.308;8.620;2023-04-25T11:42:43;7.68;;;2.83;;
75858;SDS011;64504;51.308;8.620;2023-04-25T11:45:09;3.75;;;2.38;;
75858;SDS011;64504;51.308;8.620;2023-04-25T11:47:36;3.10;;;2.58;;
75858;SDS011;64504;51.308;8.620;2023-04-25T11:50:02;3.70;;;2.67;;
75858;SDS011;64504;51.308;8.620;2023-04-25T11:52:38;4.68;;;3.08;;
75858;SDS011;64504;51.308;8.620;2023-04-25T11:55:08;5.75;;;1.90;;
75858;SDS011;64504;51.308;8.620;2023-04-25T11:57:35;4.82;;;3.53;;
75858;SDS011;64504;51.308;8.620;2023-04-25T12:02:40;8.18;;;2.88;;
75858;SDS011;64504;51.308;8.620;2023-04-25T12:05:07;3.45;;;2.70;;
75858;SDS011;64504;51.308;8.620;2023-04-25T12:07:34;4.78;;;2.45;;
75858;SDS011;64504;51.308;8.620;2023-04-25T12:10:03;4.53;;;2.67;;
75858;SDS011;64504;51.308;8.620;2023-04-25T12:12:36;2.63;;;2.38;;
75858;SDS011;64504;51.308;8.620;2023-04-25T12:15:19;4.70;;;1.90;;
75858;SDS011;64504;51.308;8.620;2023-04-25T12:17:49;2.42;;;2.08;;
75858;SDS011;64504;51.308;8.620;2023-04-25T12:20:17;3.33;;;2.25;;
75858;SDS011;64504;51.308;8.620;2023-04-25T12:22:45;6.75;;;2.03;;
75858;SDS011;64504;51.308;8.620;2023-04-25T12:25:12;3.67;;;1.55;;
75858;SDS011;64504;51.308;8.620;2023-04-25T12:27:39;3.42;;;2.47;;
75858;SDS011;64504;51.308;8.620;2023-04-25T12:30:10;2.72;;;1.98;;
75858;SDS011;64504;51.308;8.620;2023-04-25T12:32:38;2.40;;;1.70;;
75858;SDS011;64504;51.308;8.620;2023-04-25T12:35:06;6.90;;;2.55;;
75858;SDS011;64504;51.308;8.620;2023-04-25T12:37:33;6.00;;;2.50;;
75858;SDS011;64504;51.308;8.620;2023-04-25T12:39:58;12.60;;;3.22;;
75858;SDS011;64504;51.308;8.620;2023-04-25T12:42:24;6.55;;;2.22;;
75858;SDS011;64504;51.308;8.620;2023-04-25T12:44:49;4.35;;;2.78;;
75858;SDS011;64504;51.308;8.620;2023-04-25T12:47:15;16.13;;;4.05;;
75858;SDS011;64504;51.308;8.620;2023-04-25T12:49:42;7.22;;;2.75;;
75858;SDS011;64504;51.308;8.620;2023-04-25T12:52:14;5.55;;;2.78;;
75858;SDS011;64504;51.308;8.620;2023-04-25T12:54:40;3.72;;;3.25;;
75858;SDS011;64504;51.308;8.620;2023-04-25T12:57:07;2.92;;;2.22;;
75858;SDS011;64504;51.308;8.620;2023-04-25T12:59:33;6.72;;;3.17;;
75858;SDS011;64504;51.308;8.620;2023-04-25T13:02:02;7.47;;;3.10;;
75858;SDS011;64504;51.308;8.620;2023-04-25T13:04:29;7.13;;;3.03;;
75858;SDS011;64504;51.308;8.620;2023-04-25T13:06:55;8.20;;;2.88;;
75858;SDS011;64504;51.308;8.620;2023-04-25T13:09:20;5.93;;;3.38;;
75858;SDS011;64504;51.308;8.620;2023-04-25T13:11:47;3.95;;;2.80;;
75858;SDS011;64504;51.308;8.620;2023-04-25T13:14:12;5.13;;;2.95;;
75858;SDS011;64504;51.308;8.620;2023-04-25T13:16:38;5.05;;;2.67;;
75858;SDS011;64504;51.308;8.620;2023-04-25T13:19:04;12.00;;;3.42;;
75858;SDS011;64504;51.308;8.620;2023-04-25T13:21:31;8.45;;;2.47;;
75858;SDS011;64504;51.308;8.620;2023-04-25T13:23:57;4.65;;;2.53;;
75858;SDS011;64504;51.308;8.620;2023-04-25T13:26:22;4.10;;;2.50;;
75858;SDS011;64504;51.308;8.620;2023-04-25T13:28:48;4.10;;;2.30;;
75858;SDS011;64504;51.308;8.620;2023-04-25T13:31:14;4.53;;;2.97;;
75858;SDS011;64504;51.308;8.620;2023-04-25T13:33:40;3.30;;;2.38;;
75858;SDS011;64504;51.308;8.620;2023-04-25T13:36:06;1.85;;;1.67;;
75858;SDS011;64504;51.308;8.620;2023-04-25T13:38:31;1.77;;;1.67;;
75858;SDS011;64504;51.308;8.620;2023-04-25T13:40:57;1.55;;;1.45;;
75858;SDS011;64504;51.308;8.620;2023-04-25T13:43:22;2.20;;;2.00;;
75858;SDS011;64504;51.308;8.620;2023-04-25T13:45:48;12.60;;;1.98;;
75858;SDS011;64504;51.308;8.620;2023-04-25T13:48:15;5.68;;;2.25;;
75858;SDS011;64504;51.308;8.620;2023-04-25T13:50:40;1.88;;;1.70;;
75858;SDS011;64504;51.308;8.620;2023-04-25T13:53:05;8.52;;;2.58;;
75858;SDS011;64504;51.308;8.620;2023-04-25T13:55:31;3.03;;;2.67;;
75858;SDS011;64504;51.308;8.620;2023-04-25T13:57:57;6.20;;;2.70;;
75858;SDS011;64504;51.308;8.620;2023-04-25T14:00:22;2.00;;;1.90;;
75858;SDS011;64504;51.308;8.620;2023-04-25T14:02:48;2.65;;;2.42;;
75858;SDS011;64504;51.308;8.620;2023-04-25T14:05:14;6.55;;;2.75;;
75858;SDS011;64504;51.308;8.620;2023-04-25T14:07:41;9.40;;;2.08;;
75858;SDS011;64504;51.308;8.620;2023-04-25T14:10:06;3.05;;;2.17;;
75858;SDS011;64504;51.308;8.620;2023-04-25T14:12:32;1.15;;;1.15;;
75858;SDS011;64504;51.308;8.620;2023-04-25T14:14:58;2.53;;;2.00;;
75858;SDS011;64504;51.308;8.620;2023-04-25T14:17:23;1.27;;;1.02;;
75858;SDS011;64504;51.308;8.620;2023-04-25T14:19:49;2.85;;;2.00;;
75858;SDS011;64504;51.308;8.620;2023-04-25T14:22:15;2.88;;;1.73;;
75858;SDS011;64504;51.308;8.620;2023-04-25T14:24:41;1.80;;;1.33;;
75858;SDS011;64504;51.308;8.620;2023-04-25T14:27:07;1.65;;;1.30;;
75858;SDS011;64504;51.308;8.620;2023-04-25T14:29:32;1.77;;;1.67;;
75858;SDS011;64504;51.308;8.620;2023-04-25T14:32:00;3.47;;;2.58;;
75858;SDS011;64504;51.308;8.620;2023-04-25T14:34:27;2.60;;;1.70;;
75858;SDS011;64504;51.308;8.620;2023-04-25T14:36:52;3.00;;;2.22;;
75858;SDS011;64504;51.308;8.620;2023-04-25T14:39:18;2.67;;;1.92;;
75858;SDS011;64504;51.308;8.620;2023-04-25T14:41:44;7.93;;;3.05;;
75858;SDS011;64504;51.308;8.620;2023-04-25T14:44:10;3.10;;;2.40;;
75858;SDS011;64504;51.308;8.620;2023-04-25T14:46:36;5.72;;;3.05;;
75858;SDS011;64504;51.308;8.620;2023-04-25T14:49:04;2.92;;;2.10;;